Airfield :
LOGIN :

Register | Disclaimer

   EN    FR    IT 

 










Legend :    VFR   Marginal VFR   IFR   Intensive IFR   Very Intensive IFR
Visi :
Ceiling :
>= 8 km
>= 3000ft
5 to 8 km
1000 to 3000 ft
1500m to 5 km
500 to 1000 ft
800 to 1500m
200 to 500 ft
< 800m
< 200 ft
Symbols :   Thunderstorms  Fog  Heavy snow  Heavy precipitations  Wind > 20 kt
SIGMETs :     Misc.  Thunderstorms  Icing  Turbulence  Mountain Waves  Volcanic Ashes






- Airport Elevation : 40 ft
- IATA code : RMI


LIPR - Federico Fellini Int. Rimini

CURRENT METAR :
  • 250820Z 29006KT 260V320 2500 BR FEW005 BKN040 03/02 Q1034

EXPIRED METARs :
  • 250750Z 30004KT 270V340 2000 BR SCT004 BKN040 02/01 Q1034
  • 250720Z 29008KT 2000 BR BKN035 02/01 Q1034
  • 250650Z AUTO 29007KT 4600 BR BKN037/// 02/01 Q1034
  • 250620Z AUTO 32006KT 6000 BKN037/// 02/01 Q1034
  • 250550Z AUTO 30007KT 6000 BKN037/// 02/00 Q1034

TAF TAF LIPR
Valid from the 25 at 06:00 until the 26 at 06:00 UTC


250500Z 2506/2606 30008KT 6000 BKN030



MET'MAP, your aeronautical weather chart ! - Copyright ORBIFLY December 2007 - Disclaimer

ORBIFLY MET'MAP TEAM :

Programming & Development : Alexandra Zaïnal
Original concept : Baudouin d'Aumeries
Technical & hardware support : Manuel Goepfert
Assistance : Marc-Olivier Méhu

Contact : metmap@orbifly.com




SOURCES & CREDITS :

   NOAA